createdAt,value
2018-09-24T00:00:27.406Z,101687.64
2018-09-24T00:02:55.472Z,101693.55
2018-09-24T00:05:23.555Z,101702.72
2018-09-24T00:07:51.616Z,101696.62
2018-09-24T00:10:19.708Z,101707.38
2018-09-24T00:12:47.755Z,101704.37
2018-09-24T00:15:15.800Z,101710.00
2018-09-24T00:17:43.863Z,101719.23
2018-09-24T00:20:11.905Z,101720.80
2018-09-24T00:22:39.957Z,101716.28
2018-09-24T00:25:08.040Z,101726.61
2018-09-24T00:27:36.106Z,101716.70
2018-09-24T00:30:04.157Z,101718.39
2018-09-24T00:32:32.212Z,101710.98
2018-09-24T00:35:00.276Z,101722.27
2018-09-24T00:37:28.339Z,101722.22
2018-09-24T00:39:56.390Z,101720.80
2018-09-24T00:42:24.457Z,101729.59
2018-09-24T00:44:52.512Z,101731.53
2018-09-24T00:47:20.684Z,101733.73
2018-09-24T00:49:48.732Z,101743.14
2018-09-24T00:52:16.791Z,101742.63
2018-09-24T00:54:44.842Z,101739.36
2018-09-24T00:57:12.893Z,101743.88
2018-09-24T00:59:40.952Z,101752.16
2018-09-24T01:02:09.007Z,101750.54
2018-09-24T01:04:37.044Z,101754.92
2018-09-24T01:07:05.135Z,101760.81
2018-09-24T01:09:33.192Z,101769.74
2018-09-24T01:12:01.248Z,101773.56
2018-09-24T01:14:29.300Z,101776.42
2018-09-24T01:16:57.366Z,101770.39
2018-09-24T01:19:25.432Z,101768.81
2018-09-24T01:21:53.493Z,101770.83
2018-09-24T01:24:21.548Z,101778.60
2018-09-24T01:26:49.600Z,101781.45
2018-09-24T01:29:17.704Z,101783.75
2018-09-24T01:31:45.788Z,101785.13
2018-09-24T01:34:13.899Z,101797.36
2018-09-24T01:36:41.979Z,101793.26
2018-09-24T01:39:10.060Z,101799.66
2018-09-24T01:41:38.124Z,101802.17
2018-09-24T01:44:06.215Z,101804.42
2018-09-24T01:46:34.292Z,101805.80
2018-09-24T01:49:02.337Z,101811.88
2018-09-24T01:51:36.517Z,101822.92
2018-09-24T01:54:05.306Z,101827.34
2018-09-24T01:56:33.400Z,101838.12
2018-09-24T01:59:01.443Z,101837.01
2018-09-24T02:01:29.523Z,101836.73
2018-09-24T02:03:57.595Z,101840.88
2018-09-24T02:06:25.648Z,101850.86
2018-09-24T02:08:53.727Z,101845.06
2018-09-24T02:11:21.820Z,101843.98
2018-09-24T02:13:52.751Z,101855.91
2018-09-24T02:16:21.210Z,101858.45
2018-09-24T02:18:49.614Z,101864.22
2018-09-24T02:21:17.963Z,101870.58
2018-09-24T02:23:46.030Z,101867.30
2018-09-24T02:26:14.114Z,101873.95
2018-09-24T02:28:42.176Z,101879.76
2018-09-24T02:31:10.227Z,101892.53
2018-09-24T02:33:38.304Z,101894.50
2018-09-24T02:36:06.352Z,101901.43
2018-09-24T02:38:37.472Z,101902.54
2018-09-24T02:41:05.528Z,101899.53
2018-09-24T02:43:33.573Z,101904.75
2018-09-24T02:46:01.636Z,101908.13
2018-09-24T02:48:29.680Z,101913.38
2018-09-24T02:50:57.752Z,101917.83
2018-09-24T02:53:25.869Z,101921.37
2018-09-24T02:55:53.920Z,101925.28
2018-09-24T02:58:22.292Z,101924.45
2018-09-24T03:00:50.553Z,101940.77
2018-09-24T03:03:18.612Z,101944.08
2018-09-24T03:05:46.668Z,101949.33
2018-09-24T03:08:15.086Z,101949.33
2018-09-24T03:10:43.444Z,101956.23
2018-09-24T03:13:11.504Z,101961.75
2018-09-24T03:15:41.034Z,101958.71
2018-09-24T03:18:09.724Z,101955.37
2018-09-24T03:20:39.896Z,101965.55
2018-09-24T03:23:08.315Z,101968.06
2018-09-24T03:25:36.453Z,101974.69
2018-09-24T03:28:04.668Z,101970.83
2018-09-24T03:30:38.656Z,101973.28
2018-09-24T03:33:06.716Z,101974.97
2018-09-24T03:35:35.025Z,101975.80
2018-09-24T03:38:03.125Z,101987.05
2018-09-24T03:40:31.548Z,101982.60
2018-09-24T03:43:00.009Z,101987.57
2018-09-24T03:45:28.920Z,101974.91
2018-09-24T03:47:57.040Z,101977.66
2018-09-24T03:50:25.075Z,101981.53
2018-09-24T03:52:53.120Z,101987.33
2018-09-24T03:55:21.209Z,101993.64
2018-09-24T03:57:49.249Z,101994.23
2018-09-24T04:00:17.313Z,102003.62
2018-09-24T04:02:45.390Z,102006.37
2018-09-24T04:05:18.893Z,102019.87
2018-09-24T04:07:52.276Z,102027.88
2018-09-24T04:10:25.909Z,102027.05
2018-09-24T04:12:59.308Z,102029.29
2018-09-24T04:15:32.688Z,102024.35
2018-09-24T04:18:06.117Z,102016.62
2018-09-24T04:20:39.604Z,102023.00
2018-09-24T04:23:13.176Z,102023.58
2018-09-24T04:25:46.772Z,102023.61
2018-09-24T04:28:20.262Z,102029.38
2018-09-24T04:30:53.864Z,102033.80
2018-09-24T04:33:27.382Z,102036.00
2018-09-24T04:36:00.960Z,102041.52
2018-09-24T04:38:34.332Z,102040.67
2018-09-24T04:41:07.773Z,102042.02
2018-09-24T04:43:41.189Z,102046.96
2018-09-24T04:46:14.613Z,102059.41
2018-09-24T04:48:48.005Z,102076.83
2018-09-24T04:51:21.415Z,102083.73
2018-09-24T04:53:54.949Z,102083.52
2018-09-24T04:56:28.505Z,102095.41
2018-09-24T04:59:01.858Z,102098.47
2018-09-24T05:01:35.227Z,102104.84
2018-09-24T05:04:08.788Z,102113.45
2018-09-24T05:06:42.188Z,102117.06
2018-09-24T05:09:15.564Z,102118.55
2018-09-24T05:11:48.949Z,102139.81
2018-09-24T05:14:22.328Z,102157.50
2018-09-24T05:16:55.776Z,102142.00
2018-09-24T05:19:29.328Z,102133.97
2018-09-24T05:22:02.852Z,102141.38
2018-09-24T05:24:36.237Z,102132.79
2018-09-24T05:27:09.742Z,102123.44
2018-09-24T05:29:43.146Z,102122.34
2018-09-24T05:32:16.549Z,102127.28
2018-09-24T05:34:49.952Z,102129.16
2018-09-24T05:37:23.351Z,102140.18
2018-09-24T05:39:56.857Z,102137.95
2018-09-24T05:42:30.336Z,102138.70
2018-09-24T05:45:03.843Z,102153.55
2018-09-24T05:47:37.240Z,102178.93
2018-09-24T05:50:10.668Z,102195.47
2018-09-24T05:52:44.125Z,102196.83
2018-09-24T05:55:17.596Z,102213.95
2018-09-24T05:57:51.050Z,102218.11
2018-09-24T06:00:24.640Z,102224.50
2018-09-24T06:02:58.225Z,102213.48
2018-09-24T06:05:31.657Z,102193.91
2018-09-24T06:08:04.984Z,102199.73
2018-09-24T06:10:38.344Z,102206.63
2018-09-24T06:13:11.833Z,102208.81
2018-09-24T06:15:45.249Z,102208.56
2018-09-24T06:18:18.670Z,102211.30
2018-09-24T06:20:52.054Z,102212.34
2018-09-24T06:23:25.535Z,102216.05
2018-09-24T06:25:58.956Z,102216.16
2018-09-24T06:28:32.566Z,102220.45
2018-09-24T06:31:05.899Z,102224.13
2018-09-24T06:33:39.236Z,102229.45
2018-09-24T06:36:12.620Z,102231.80
2018-09-24T06:38:45.991Z,102243.99
2018-09-24T06:41:19.421Z,102244.58
2018-09-24T06:43:52.953Z,102237.05
2018-09-24T06:46:26.488Z,102254.63
2018-09-24T06:48:59.960Z,102256.79
2018-09-24T06:51:33.412Z,102258.48
2018-09-24T06:54:06.808Z,102276.52
2018-09-24T06:56:40.316Z,102282.61
2018-09-24T06:59:13.856Z,102281.69
2018-09-24T07:01:47.196Z,102283.48
2018-09-24T07:04:20.569Z,102279.14
2018-09-24T07:06:54.003Z,102283.86
2018-09-24T07:09:27.381Z,102285.03
2018-09-24T07:12:00.864Z,102283.14
2018-09-24T07:14:34.408Z,102293.98
2018-09-24T07:17:08.030Z,102300.35
2018-09-24T07:19:41.449Z,102293.42
2018-09-24T07:22:14.830Z,102294.16
2018-09-24T07:24:48.274Z,102295.52
2018-09-24T07:27:21.656Z,102301.73
2018-09-24T07:29:55.052Z,102300.75
2018-09-24T07:32:28.621Z,102307.03
2018-09-24T07:35:02.222Z,102306.41
2018-09-24T07:37:35.640Z,102318.81
2018-09-24T07:40:09.044Z,102322.09
2018-09-24T07:42:42.443Z,102325.88
2018-09-24T07:45:15.800Z,102331.86
2018-09-24T07:47:49.252Z,102332.94
2018-09-24T07:50:22.856Z,102344.73
2018-09-24T07:52:56.416Z,102345.66
2018-09-24T07:55:30.120Z,102346.86
2018-09-24T07:58:03.444Z,102352.63
2018-09-24T08:00:36.812Z,102357.08
2018-09-24T08:03:10.148Z,102366.45
2018-09-24T08:05:43.676Z,102369.59
2018-09-24T08:08:17.228Z,102382.33
2018-09-24T08:10:50.712Z,102383.88
2018-09-24T08:13:24.332Z,102380.61
2018-09-24T08:15:57.837Z,102386.44
2018-09-24T08:18:31.360Z,102397.84
2018-09-24T08:21:04.878Z,102405.34
2018-09-24T08:23:38.173Z,102414.01
2018-09-24T08:26:11.653Z,102420.35
2018-09-24T08:28:45.054Z,102424.62
2018-09-24T08:31:18.485Z,102435.42
2018-09-24T08:33:51.864Z,102437.39
2018-09-24T08:36:25.415Z,102446.83
2018-09-24T08:38:58.894Z,102448.66
2018-09-24T08:41:32.396Z,102464.01
2018-09-24T08:44:06.052Z,102464.09
2018-09-24T08:46:39.599Z,102462.43
2018-09-24T08:49:13.187Z,102472.02
2018-09-24T08:51:46.590Z,102482.70
2018-09-24T08:54:20.013Z,102479.56
2018-09-24T08:56:53.414Z,102475.66
2018-09-24T08:59:26.836Z,102470.24
2018-09-24T09:02:00.323Z,102467.28
2018-09-24T09:04:33.872Z,102466.89
2018-09-24T09:07:07.399Z,102480.17
2018-09-24T09:09:40.885Z,102485.08
2018-09-24T09:12:14.425Z,102489.83
2018-09-24T09:14:47.808Z,102495.81
2018-09-24T09:17:21.336Z,102494.02
2018-09-24T09:19:54.737Z,102492.13
2018-09-24T09:22:28.207Z,102500.09
2018-09-24T09:25:01.620Z,102502.58
2018-09-24T09:27:35.092Z,102494.95
2018-09-24T09:30:08.633Z,102508.72
2018-09-24T09:32:42.136Z,102515.83
2018-09-24T09:35:15.716Z,102516.55
2018-09-24T09:37:48.982Z,102529.75
2018-09-24T09:40:22.396Z,102528.89
2018-09-24T09:42:55.820Z,102553.41
2018-09-24T09:45:29.239Z,102550.13
2018-09-24T09:48:02.676Z,102551.48
2018-09-24T09:50:36.205Z,102553.66
2018-09-24T09:53:09.657Z,102550.57
2018-09-24T09:55:43.158Z,102550.05
2018-09-24T09:58:16.704Z,102566.45
2018-09-24T10:00:50.036Z,102559.28
2018-09-24T10:03:23.569Z,102555.45
2018-09-24T10:05:57.044Z,102555.03
2018-09-24T10:08:30.580Z,102566.00
2018-09-24T10:11:04.149Z,102580.04
2018-09-24T10:13:37.715Z,102592.44
2018-09-24T10:16:11.262Z,102599.53
2018-09-24T10:18:44.629Z,102596.09
2018-09-24T10:21:25.194Z,102599.99
2018-09-24T10:23:58.587Z,102603.17
2018-09-24T10:26:31.944Z,102597.39
2018-09-24T10:29:05.371Z,102577.24
2018-09-24T10:31:38.734Z,102592.63
2018-09-24T10:34:12.204Z,102589.12
2018-09-24T10:36:46.012Z,102591.46
2018-09-24T10:39:19.452Z,102589.49
2018-09-24T10:41:52.988Z,102595.74
2018-09-24T10:44:26.533Z,102589.72
2018-09-24T10:46:59.939Z,102590.31
2018-09-24T10:49:33.373Z,102580.55
2018-09-24T10:52:06.848Z,102586.40
2018-09-24T10:54:40.230Z,102584.72
2018-09-24T10:57:13.612Z,102579.70
2018-09-24T10:59:47.212Z,102578.13
2018-09-24T11:02:20.776Z,102589.53
2018-09-24T11:04:54.332Z,102583.27
2018-09-24T11:07:27.816Z,102582.41
2018-09-24T11:10:01.370Z,102586.55
2018-09-24T11:12:34.755Z,102585.06
2018-09-24T11:15:08.141Z,102589.13
2018-09-24T11:17:41.860Z,102595.70
2018-09-24T11:20:14.805Z,102593.72
2018-09-24T11:22:48.209Z,102595.94
2018-09-24T11:25:21.741Z,102599.45
2018-09-24T11:27:55.268Z,102597.56
2018-09-24T11:30:28.788Z,102598.21
2018-09-24T11:33:02.325Z,102599.70
2018-09-24T11:35:35.953Z,102602.17
2018-09-24T11:38:09.357Z,102598.48
2018-09-24T11:40:42.919Z,102602.15
2018-09-24T11:43:16.474Z,102604.11
2018-09-24T11:45:49.886Z,102608.78
2018-09-24T11:48:23.378Z,102611.91
2018-09-24T11:50:56.828Z,102619.38
2018-09-24T11:53:30.208Z,102610.34
2018-09-24T11:56:03.812Z,102612.91
2018-09-24T11:58:37.372Z,102613.53
2018-09-24T12:01:10.748Z,102606.47
2018-09-24T12:03:44.173Z,102612.13
2018-09-24T12:06:17.681Z,102607.20
2018-09-24T12:08:51.123Z,102606.27
2018-09-24T12:11:24.640Z,102609.42
2018-09-24T12:13:58.061Z,102601.95
2018-09-24T12:16:31.440Z,102611.81
2018-09-24T12:19:04.912Z,102609.09
2018-09-24T12:21:38.508Z,102617.00
2018-09-24T12:24:12.415Z,102615.02
2018-09-24T12:26:45.757Z,102616.66
2018-09-24T12:29:19.203Z,102623.05
2018-09-24T12:31:52.765Z,102635.16
2018-09-24T12:34:26.261Z,102647.95
2018-09-24T12:36:59.589Z,102654.92
2018-09-24T12:39:32.937Z,102655.70
2018-09-24T12:42:06.455Z,102667.57
2018-09-24T12:44:39.924Z,102687.23
2018-09-24T12:47:13.435Z,102689.96
2018-09-24T12:49:46.800Z,102700.33
2018-09-24T12:52:20.335Z,102697.17
2018-09-24T12:54:53.937Z,102687.63
2018-09-24T12:57:27.445Z,102670.58
2018-09-24T13:00:00.972Z,102684.13
2018-09-24T13:02:34.368Z,102674.35
2018-09-24T13:05:07.796Z,102678.77
2018-09-24T13:07:41.342Z,102691.00
2018-09-24T13:10:14.756Z,102680.09
2018-09-24T13:12:48.141Z,102685.09
2018-09-24T13:15:21.555Z,102687.95
2018-09-24T13:17:54.968Z,102681.41
2018-09-24T13:20:28.368Z,102695.04
2018-09-24T13:23:01.725Z,102700.28
2018-09-24T13:25:35.196Z,102679.58
2018-09-24T13:28:08.675Z,102677.06
2018-09-24T13:30:42.181Z,102684.13
2018-09-24T13:33:15.683Z,102678.13
2018-09-24T13:35:49.204Z,102687.03
2018-09-24T13:38:22.569Z,102695.23
2018-09-24T13:40:56.163Z,102689.91
2018-09-24T13:43:29.574Z,102679.88
2018-09-24T13:46:03.044Z,102687.17
2018-09-24T13:48:36.428Z,102686.80
2018-09-24T13:51:09.944Z,102684.23
2018-09-24T13:53:43.338Z,102680.44
2018-09-24T13:56:16.743Z,102683.23
2018-09-24T13:58:50.222Z,102695.23
2018-09-24T14:01:23.744Z,102689.90
2018-09-24T14:03:57.172Z,102686.48
2018-09-24T14:06:30.698Z,102689.00
2018-09-24T14:09:04.072Z,102680.50
2018-09-24T14:11:37.475Z,102685.72
2018-09-24T14:14:10.980Z,102690.83
2018-09-24T14:16:44.515Z,102682.38
2018-09-24T14:19:17.840Z,102684.52
2018-09-24T14:21:51.187Z,102679.89
2018-09-24T14:24:24.768Z,102675.86
2018-09-24T14:26:58.293Z,102683.17
2018-09-24T14:29:31.792Z,102687.20
2018-09-24T14:32:05.305Z,102691.12
2018-09-24T14:34:38.733Z,102704.16
2018-09-24T14:37:12.374Z,102714.59
2018-09-24T14:39:45.773Z,102710.51
2018-09-24T14:42:19.113Z,102726.25
2018-09-24T14:44:52.604Z,102731.70
2018-09-24T14:47:26.129Z,102724.45
2018-09-24T14:49:59.652Z,102731.25
2018-09-24T14:52:33.187Z,102730.38
2018-09-24T14:55:06.603Z,102734.15
2018-09-24T14:57:40.028Z,102745.66
2018-09-24T15:00:13.493Z,102754.50
2018-09-24T15:02:46.992Z,102769.28
2018-09-24T15:05:20.522Z,102779.09
2018-09-24T15:07:53.926Z,102777.41
2018-09-24T15:10:27.272Z,102767.73
2018-09-24T15:13:00.601Z,102759.06
2018-09-24T15:15:33.909Z,102752.22
2018-09-24T15:18:07.469Z,102756.70
2018-09-24T15:20:41.040Z,102758.39
2018-09-24T15:23:14.468Z,102755.47
2018-09-24T15:25:48.000Z,102762.51
2018-09-24T15:28:21.453Z,102766.59
2018-09-24T15:30:54.856Z,102761.99
2018-09-24T15:33:28.401Z,102765.14
2018-09-24T15:36:01.912Z,102763.69
2018-09-24T15:38:35.320Z,102763.45
2018-09-24T15:41:08.793Z,102765.80
2018-09-24T15:43:42.292Z,102773.13
2018-09-24T15:46:15.804Z,102775.47
2018-09-24T15:48:49.144Z,102773.36
2018-09-24T15:51:22.547Z,102779.84
2018-09-24T15:53:55.981Z,102774.52
2018-09-24T15:56:29.560Z,102780.95
2018-09-24T15:59:03.084Z,102772.37
2018-09-24T16:01:36.499Z,102783.70
2018-09-24T16:04:09.993Z,102802.20
2018-09-24T16:06:43.558Z,102791.15
2018-09-24T16:09:16.896Z,102793.07
2018-09-24T16:11:50.481Z,102814.56
2018-09-24T16:14:24.057Z,102799.60
2018-09-24T16:16:57.412Z,102796.98
2018-09-24T16:19:30.928Z,102800.09
2018-09-24T16:22:04.289Z,102807.91
2018-09-24T16:24:37.615Z,102805.44
2018-09-24T16:27:11.253Z,102809.74
2018-09-24T16:29:44.759Z,102805.38
2018-09-24T16:32:18.312Z,102816.17
2018-09-24T16:34:51.925Z,102810.06
2018-09-24T16:37:25.578Z,102805.08
2018-09-24T16:39:59.156Z,102798.12
2018-09-24T16:42:32.729Z,102807.27
2018-09-24T16:45:06.356Z,102811.48
2018-09-24T16:47:39.893Z,102815.66
2018-09-24T16:50:13.503Z,102821.84
2018-09-24T16:52:46.953Z,102821.34
2018-09-24T16:55:20.521Z,102832.73
2018-09-24T16:57:54.083Z,102830.59
2018-09-24T17:00:27.511Z,102835.11
2018-09-24T17:03:01.092Z,102832.16
2018-09-24T17:05:34.581Z,102835.23
2018-09-24T17:08:08.070Z,102838.53
2018-09-24T17:10:41.547Z,102841.30
2018-09-24T17:13:15.077Z,102849.37
2018-09-24T17:15:48.485Z,102849.92
2018-09-24T17:18:21.888Z,102854.33
2018-09-24T17:20:55.437Z,102864.33
2018-09-24T17:23:28.983Z,102872.09
2018-09-24T17:26:02.588Z,102883.43
2018-09-24T17:28:36.237Z,102884.02
2018-09-24T17:31:09.671Z,102875.44
2018-09-24T17:33:43.233Z,102878.52
2018-09-24T17:36:16.693Z,102890.30
2018-09-24T17:38:50.214Z,102894.49
2018-09-24T17:41:23.780Z,102892.41
2018-09-24T17:43:57.389Z,102889.96
2018-09-24T17:46:30.954Z,102894.21
2018-09-24T17:49:04.303Z,102891.21
2018-09-24T17:51:37.745Z,102893.75
2018-09-24T17:54:11.248Z,102898.49
2018-09-24T17:56:44.580Z,102904.33
2018-09-24T17:59:18.060Z,102905.73
2018-09-24T18:01:51.583Z,102900.55
2018-09-24T18:04:24.967Z,102906.34
2018-09-24T18:06:58.567Z,102904.97
2018-09-24T18:09:32.048Z,102908.88
2018-09-24T18:12:05.497Z,102914.17
2018-09-24T18:14:39.025Z,102920.84
2018-09-24T18:17:12.372Z,102924.45
2018-09-24T18:19:46.043Z,102925.88
2018-09-24T18:22:19.460Z,102930.86
2018-09-24T18:24:52.896Z,102935.30
2018-09-24T18:27:26.782Z,102935.56
2018-09-24T18:30:00.304Z,102947.20
2018-09-24T18:32:33.708Z,102947.75
2018-09-24T18:35:07.234Z,102959.94
2018-09-24T18:37:40.880Z,102967.15
2018-09-24T18:40:14.408Z,102960.52
2018-09-24T18:42:47.772Z,102963.83
2018-09-24T18:45:21.313Z,102965.80
2018-09-24T18:47:54.737Z,102963.86
2018-09-24T18:50:28.180Z,102969.68
2018-09-24T18:53:01.584Z,102964.98
2018-09-24T18:55:35.122Z,102973.00
2018-09-24T18:58:08.695Z,102974.12
2018-09-24T19:00:42.060Z,102972.45
2018-09-24T19:03:15.524Z,102976.89
2018-09-24T19:05:48.852Z,102973.31
2018-09-24T19:08:22.359Z,102981.33
2018-09-24T19:10:55.868Z,102979.11
2018-09-24T19:13:29.465Z,102984.64
2018-09-24T19:16:03.068Z,102988.52
2018-09-24T19:18:36.551Z,102996.81
2018-09-24T19:21:10.060Z,103002.59
2018-09-24T19:23:43.607Z,103008.41
2018-09-24T19:26:17.171Z,102997.64
2018-09-24T19:28:50.692Z,103009.52
2018-09-24T19:31:24.073Z,103013.66
2018-09-24T19:33:57.493Z,103020.29
2018-09-24T19:36:30.887Z,103023.33
2018-09-24T19:39:04.325Z,103030.22
2018-09-24T19:41:37.823Z,103036.58
2018-09-24T19:44:11.704Z,103033.55
2018-09-24T19:46:45.237Z,103036.84
2018-09-24T19:49:18.700Z,103043.19
2018-09-24T19:51:52.263Z,103042.91
2018-09-24T19:54:25.652Z,103045.94
2018-09-24T19:56:59.152Z,103052.56
2018-09-24T19:59:32.780Z,103055.03
2018-09-24T20:02:06.279Z,103059.16
2018-09-24T20:04:39.785Z,103057.16
2018-09-24T20:07:13.317Z,103059.36
2018-09-24T20:09:46.772Z,103069.28
2018-09-24T20:12:20.084Z,103059.05
2018-09-24T20:14:53.605Z,103063.45
2018-09-24T20:17:27.036Z,103071.44
2018-09-24T20:20:00.413Z,103074.18
2018-09-24T20:22:34.018Z,103080.22
2018-09-24T20:25:07.367Z,103074.70
2018-09-24T20:27:40.987Z,103074.41
2018-09-24T20:30:14.506Z,103082.66
2018-09-24T20:32:48.100Z,103084.28
2018-09-24T20:35:21.570Z,103088.38
2018-09-24T20:37:55.056Z,103095.50
2018-09-24T20:40:28.475Z,103102.92
2018-09-24T20:43:01.816Z,103107.30
2018-09-24T20:45:35.244Z,103113.61
2018-09-24T20:48:08.901Z,103114.42
2018-09-24T20:50:42.321Z,103114.94
2018-09-24T20:53:15.893Z,103113.27
2018-09-24T20:55:49.315Z,103119.02
2018-09-24T20:58:22.745Z,103115.67
2018-09-24T21:00:56.348Z,103125.56
2018-09-24T21:03:29.852Z,103130.51
2018-09-24T21:06:03.204Z,103132.13
2018-09-24T21:08:36.678Z,103140.63
2018-09-24T21:11:10.034Z,103145.25
2018-09-24T21:13:43.384Z,103134.73
2018-09-24T21:16:16.924Z,103134.44
2018-09-24T21:18:50.420Z,103143.50
2018-09-24T21:21:23.880Z,103147.87
2018-09-24T21:23:57.293Z,103156.37
2018-09-24T21:26:30.604Z,103151.36
2018-09-24T21:29:03.978Z,103155.49
2018-09-24T21:31:37.484Z,103163.19
2018-09-24T21:34:10.987Z,103161.23
2018-09-24T21:36:44.488Z,103159.02
2018-09-24T21:39:17.984Z,103164.49
2018-09-24T21:41:51.568Z,103159.25
2018-09-24T21:44:24.992Z,103164.72
2018-09-24T21:46:58.454Z,103166.63
2018-09-24T21:49:31.981Z,103171.57
2018-09-24T21:52:05.356Z,103169.39
2018-09-24T21:54:38.863Z,103177.88
2018-09-24T21:57:12.413Z,103176.23
2018-09-24T21:59:45.904Z,103178.95
2018-09-24T22:02:19.244Z,103182.23
2018-09-24T22:04:52.776Z,103188.50
2018-09-24T22:07:26.249Z,103190.95
2018-09-24T22:09:59.851Z,103193.39
2018-09-24T22:12:33.237Z,103191.75
2018-09-24T22:15:06.601Z,103201.08
2018-09-24T22:17:40.108Z,103201.88
2018-09-24T22:20:13.633Z,103202.41
2018-09-24T22:22:46.993Z,103216.05
2018-09-24T22:25:20.493Z,103212.15
2018-09-24T22:27:53.798Z,103212.37
2018-09-24T22:30:27.171Z,103215.64
2018-09-24T22:33:00.547Z,103223.02
2018-09-24T22:35:33.977Z,103227.91
2018-09-24T22:38:07.489Z,103231.71
2018-09-24T22:40:40.881Z,103232.46
2018-09-24T22:43:14.270Z,103230.49
2018-09-24T22:45:47.792Z,103234.58
2018-09-24T22:48:21.145Z,103240.03
2018-09-24T22:50:54.644Z,103239.75
2018-09-24T22:53:28.151Z,103239.41
2018-09-24T22:56:01.630Z,103243.79
2018-09-24T22:58:34.956Z,103243.47
2018-09-24T23:01:08.356Z,103238.45
2018-09-24T23:03:41.712Z,103247.45
2018-09-24T23:06:15.132Z,103240.25
2018-09-24T23:08:48.544Z,103245.12
2018-09-24T23:11:22.144Z,103250.34
2018-09-24T23:13:55.536Z,103249.45
2018-09-24T23:16:29.048Z,103256.59
2018-09-24T23:19:02.404Z,103257.37
2018-09-24T23:21:35.913Z,103254.05
2018-09-24T23:24:09.416Z,103250.97
2018-09-24T23:26:42.985Z,103247.33
2018-09-24T23:29:16.392Z,103247.31
2018-09-24T23:31:49.792Z,103244.78
2018-09-24T23:34:23.308Z,103256.87
2018-09-24T23:36:56.829Z,103251.33
2018-09-24T23:39:30.404Z,103248.79
2018-09-24T23:42:03.911Z,103260.03
2018-09-24T23:44:37.216Z,103263.57
2018-09-24T23:47:10.935Z,103258.55
2018-09-24T23:49:44.496Z,103257.70
2018-09-24T23:52:17.892Z,103258.48
2018-09-24T23:54:51.243Z,103258.96
2018-09-24T23:57:24.672Z,103270.20
2018-09-24T23:59:58.092Z,103267.77
